Terminal Aerodrome Forecast
Issued by NWS Medford, OR

Home | Current Version | Previous Version | Text Only | Print | Product List | Glossary On
Versions: 1 2 3 4 5 6 7 8 9 10 11 12 13 14 15 16 17 18 19
663
FTUS46 KMFR 221320 CCB
TAFMFR
TAF COR
KMFR 221320Z 2212/2312 02006KT 1 1/2SM -SHSN BR SCT008 OVC020
      TEMPO 2212/2215 1/2SM SN OVC008
     FM221800 30007KT P6SM VCSH BKN025 OVC040
     FM222200 31010KT P6SM SCT025 BKN040
     FM230300 VRB03KT P6SM SCT040=

USA.gov is the U.S. government's official web portal to all federal, state and local government web resources and services.